Airfield :
LOGIN :

Register | Disclaimer

   EN    FR    IT 

 










Legend :    VFR   Marginal VFR   IFR   Intensive IFR   Very Intensive IFR
Visi :
Ceiling :
>= 8 km
>= 3000ft
5 to 8 km
1000 to 3000 ft
1500m to 5 km
500 to 1000 ft
800 to 1500m
200 to 500 ft
< 800m
< 200 ft
Symbols :   Thunderstorms  Fog  Heavy snow  Heavy precipitations  Wind > 20 kt
SIGMETs :     Misc.  Thunderstorms  Icing  Turbulence  Mountain Waves  Volcanic Ashes







- Airport Elevation : 1273 ft
- IATA code : LJU


LJLJ - Ljubljana

CURRENT METAR :
  • 120730Z 29002KT CAVOK M03/M04 Q1019 NOSIG

EXPIRED METARs :
  • 120700Z VRB01KT CAVOK M04/M04 Q1018 NOSIG
  • 120630Z VRB01KT CAVOK M04/M05 Q1018 NOSIG
  • 120600Z VRB01KT CAVOK M04/M05 Q1018 NOSIG
  • 120530Z VRB01KT CAVOK M04/M05 Q1018 R30/CLRD// NOSIG
  • 120500Z 19001KT CAVOK M04/M05 Q1018 NOSIG

TAF TAF LJLJ
Valid from the 12 at 06:00 until the 13 at 06:00 UTC


120500Z 1206/1306 VRB03KT CAVOK
BECMG 1208/1210 12005KT
BECMG 1216/1218 30003KT
TEMPO 1220/1303 SCT060
No reported NOTAMs for that airfield.



MET'MAP, your aeronautical weather chart ! - Copyright ORBIFLY December 2007 - Disclaimer

ORBIFLY MET'MAP TEAM :

Programming & Development : Alexandra Zaïnal
Concept & Development : Baudouin d'Aumeries
Co-Development & Prog : Marc-Olivier Méhu
Technical & hardware support : Manuel Goepfert

Contact : metmap@orbifly.com




SOURCES & CREDITS :

   NOAA